El Jadida, Morocco
Current Conditions -  °F | °C
As of 7:30 AM on Thursday 23 Oct 2014 (Local Time) from GMMN Reporting Station
Few Clouds Few Clouds  
Wind Chill: 59°   Ceiling: Unl
Heat Index: 59°   Visibility: 6mi
Dew Point: 41°   Wind: 3mph
Humidity: 51%   Direction: 190°S
Pressure: 30.03"   Gusts: NA
Location:  33.26°N, 8.51°W
Report Text: GMMN 230630Z 19003KT 160V220 9999 FEW010 15/05 Q1017 NOSIG
Loading
Personal Weather Stations






























Interactive Weather Map
Tropical Storm Tracking
New forecast layout! Learn more

10-Day Weather Forecast

Advertisements
Track Severe Weather on mobile